sensor_id;sensor_type;location;lat;lon;timestamp;P1;durP1;ratioP1;P2;durP2;ratioP2
71769;SDS011;66386;52.122;5.420;2023-08-08T00:02:15;7.00;;;2.00;;
71769;SDS011;66386;52.122;5.420;2023-08-08T00:04:41;8.85;;;2.40;;
71769;SDS011;66386;52.122;5.420;2023-08-08T00:07:08;5.60;;;1.90;;
71769;SDS011;66386;52.122;5.420;2023-08-08T00:09:34;9.48;;;2.13;;
71769;SDS011;66386;52.122;5.420;2023-08-08T00:12:01;5.33;;;2.07;;
71769;SDS011;66386;52.122;5.420;2023-08-08T00:14:27;7.18;;;2.00;;
71769;SDS011;66386;52.122;5.420;2023-08-08T00:16:54;4.97;;;1.85;;
71769;SDS011;66386;52.122;5.420;2023-08-08T00:19:20;4.93;;;1.67;;
71769;SDS011;66386;52.122;5.420;2023-08-08T00:21:47;8.43;;;1.85;;
71769;SDS011;66386;52.122;5.420;2023-08-08T00:24:14;5.37;;;1.97;;
71769;SDS011;66386;52.122;5.420;2023-08-08T00:26:40;7.65;;;1.48;;
71769;SDS011;66386;52.122;5.420;2023-08-08T00:29:07;5.80;;;1.50;;
71769;SDS011;66386;52.122;5.420;2023-08-08T00:31:33;4.30;;;1.80;;
71769;SDS011;66386;52.122;5.420;2023-08-08T00:34:00;7.75;;;1.70;;
71769;SDS011;66386;52.122;5.420;2023-08-08T00:36:26;4.87;;;1.60;;
71769;SDS011;66386;52.122;5.420;2023-08-08T00:38:53;7.22;;;1.65;;
71769;SDS011;66386;52.122;5.420;2023-08-08T00:41:19;8.45;;;2.03;;
71769;SDS011;66386;52.122;5.420;2023-08-08T00:43:46;2.83;;;1.15;;
71769;SDS011;66386;52.122;5.420;2023-08-08T00:46:13;3.67;;;1.58;;
71769;SDS011;66386;52.122;5.420;2023-08-08T00:48:48;7.10;;;1.90;;
71769;SDS011;66386;52.122;5.420;2023-08-08T00:51:15;5.65;;;3.03;;
71769;SDS011;66386;52.122;5.420;2023-08-08T00:53:43;1.73;;;1.20;;
71769;SDS011;66386;52.122;5.420;2023-08-08T00:56:13;7.88;;;1.55;;
71769;SDS011;66386;52.122;5.420;2023-08-08T00:58:40;6.30;;;1.23;;
71769;SDS011;66386;52.122;5.420;2023-08-08T01:01:07;5.90;;;2.23;;
71769;SDS011;66386;52.122;5.420;2023-08-08T01:03:34;4.38;;;1.40;;
71769;SDS011;66386;52.122;5.420;2023-08-08T01:06:05;8.88;;;1.65;;
71769;SDS011;66386;52.122;5.420;2023-08-08T01:09:04;5.88;;;1.33;;
71769;SDS011;66386;52.122;5.420;2023-08-08T01:11:39;3.80;;;0.98;;
71769;SDS011;66386;52.122;5.420;2023-08-08T01:14:07;2.97;;;1.90;;
71769;SDS011;66386;52.122;5.420;2023-08-08T01:16:35;3.22;;;1.15;;
71769;SDS011;66386;52.122;5.420;2023-08-08T01:19:02;8.52;;;1.48;;
71769;SDS011;66386;52.122;5.420;2023-08-08T01:21:32;4.82;;;1.30;;
71769;SDS011;66386;52.122;5.420;2023-08-08T01:26:49;2.23;;;1.13;;
71769;SDS011;66386;52.122;5.420;2023-08-08T01:29:16;6.18;;;1.30;;
71769;SDS011;66386;52.122;5.420;2023-08-08T01:31:43;2.72;;;1.35;;
71769;SDS011;66386;52.122;5.420;2023-08-08T01:34:09;4.75;;;1.23;;
71769;SDS011;66386;52.122;5.420;2023-08-08T01:36:55;3.00;;;1.30;;
71769;SDS011;66386;52.122;5.420;2023-08-08T01:39:26;6.23;;;1.93;;
71769;SDS011;66386;52.122;5.420;2023-08-08T01:41:54;7.93;;;1.83;;
71769;SDS011;66386;52.122;5.420;2023-08-08T01:44:22;4.05;;;1.50;;
71769;SDS011;66386;52.122;5.420;2023-08-08T01:46:52;8.48;;;1.40;;
71769;SDS011;66386;52.122;5.420;2023-08-08T01:49:19;3.72;;;1.52;;
71769;SDS011;66386;52.122;5.420;2023-08-08T01:51:46;8.67;;;1.37;;
71769;SDS011;66386;52.122;5.420;2023-08-08T01:54:13;3.97;;;1.30;;
71769;SDS011;66386;52.122;5.420;2023-08-08T01:56:40;4.57;;;1.65;;
71769;SDS011;66386;52.122;5.420;2023-08-08T01:59:06;8.85;;;1.90;;
71769;SDS011;66386;52.122;5.420;2023-08-08T02:01:33;4.85;;;1.35;;
71769;SDS011;66386;52.122;5.420;2023-08-08T02:03:59;6.60;;;1.43;;
71769;SDS011;66386;52.122;5.420;2023-08-08T02:06:26;5.13;;;1.70;;
71769;SDS011;66386;52.122;5.420;2023-08-08T02:08:52;7.88;;;1.27;;
71769;SDS011;66386;52.122;5.420;2023-08-08T02:11:19;5.25;;;1.33;;
71769;SDS011;66386;52.122;5.420;2023-08-08T02:13:47;4.40;;;1.25;;
71769;SDS011;66386;52.122;5.420;2023-08-08T02:16:14;4.07;;;1.30;;
71769;SDS011;66386;52.122;5.420;2023-08-08T02:18:41;4.38;;;1.40;;
71769;SDS011;66386;52.122;5.420;2023-08-08T02:21:07;5.03;;;1.20;;
71769;SDS011;66386;52.122;5.420;2023-08-08T02:23:34;4.85;;;1.40;;
71769;SDS011;66386;52.122;5.420;2023-08-08T02:26:01;8.18;;;1.70;;
71769;SDS011;66386;52.122;5.420;2023-08-08T02:28:28;6.37;;;1.50;;
71769;SDS011;66386;52.122;5.420;2023-08-08T02:30:54;9.80;;;1.80;;
71769;SDS011;66386;52.122;5.420;2023-08-08T02:33:21;2.97;;;1.30;;
71769;SDS011;66386;52.122;5.420;2023-08-08T02:35:48;5.75;;;1.30;;
71769;SDS011;66386;52.122;5.420;2023-08-08T02:38:14;6.18;;;1.40;;
71769;SDS011;66386;52.122;5.420;2023-08-08T02:40:41;5.67;;;1.80;;
71769;SDS011;66386;52.122;5.420;2023-08-08T02:43:08;7.45;;;1.60;;
71769;SDS011;66386;52.122;5.420;2023-08-08T02:45:35;3.55;;;1.60;;
71769;SDS011;66386;52.122;5.420;2023-08-08T02:48:02;7.93;;;1.60;;
71769;SDS011;66386;52.122;5.420;2023-08-08T02:50:29;7.43;;;1.45;;
71769;SDS011;66386;52.122;5.420;2023-08-08T02:52:55;5.70;;;1.67;;
71769;SDS011;66386;52.122;5.420;2023-08-08T02:55:22;3.38;;;1.30;;
71769;SDS011;66386;52.122;5.420;2023-08-08T02:57:49;4.93;;;1.58;;
71769;SDS011;66386;52.122;5.420;2023-08-08T03:00:15;6.18;;;1.65;;
71769;SDS011;66386;52.122;5.420;2023-08-08T03:02:42;7.80;;;1.70;;
71769;SDS011;66386;52.122;5.420;2023-08-08T03:05:08;7.47;;;1.43;;
71769;SDS011;66386;52.122;5.420;2023-08-08T03:07:35;8.50;;;1.70;;
71769;SDS011;66386;52.122;5.420;2023-08-08T03:10:01;6.90;;;2.03;;
71769;SDS011;66386;52.122;5.420;2023-08-08T03:12:28;5.82;;;1.60;;
71769;SDS011;66386;52.122;5.420;2023-08-08T03:14:55;7.20;;;2.30;;
71769;SDS011;66386;52.122;5.420;2023-08-08T03:17:23;7.27;;;2.00;;
71769;SDS011;66386;52.122;5.420;2023-08-08T03:19:49;7.22;;;2.30;;
71769;SDS011;66386;52.122;5.420;2023-08-08T03:22:16;6.38;;;1.92;;
71769;SDS011;66386;52.122;5.420;2023-08-08T03:24:43;6.82;;;1.80;;
71769;SDS011;66386;52.122;5.420;2023-08-08T03:27:09;6.18;;;2.13;;
71769;SDS011;66386;52.122;5.420;2023-08-08T03:29:35;6.00;;;2.03;;
71769;SDS011;66386;52.122;5.420;2023-08-08T03:32:03;4.22;;;1.85;;
71769;SDS011;66386;52.122;5.420;2023-08-08T03:34:30;3.92;;;2.00;;
71769;SDS011;66386;52.122;5.420;2023-08-08T03:36:57;6.38;;;1.92;;
71769;SDS011;66386;52.122;5.420;2023-08-08T03:39:23;5.32;;;1.83;;
71769;SDS011;66386;52.122;5.420;2023-08-08T03:41:50;5.20;;;1.90;;
71769;SDS011;66386;52.122;5.420;2023-08-08T03:44:17;8.57;;;2.25;;
71769;SDS011;66386;52.122;5.420;2023-08-08T03:46:44;5.07;;;1.98;;
71769;SDS011;66386;52.122;5.420;2023-08-08T03:49:10;7.63;;;2.70;;
71769;SDS011;66386;52.122;5.420;2023-08-08T03:51:37;7.47;;;2.00;;
71769;SDS011;66386;52.122;5.420;2023-08-08T03:54:04;7.23;;;2.17;;
71769;SDS011;66386;52.122;5.420;2023-08-08T03:56:30;5.85;;;2.50;;
71769;SDS011;66386;52.122;5.420;2023-08-08T03:58:57;7.60;;;2.60;;
71769;SDS011;66386;52.122;5.420;2023-08-08T04:01:24;7.75;;;3.28;;
71769;SDS011;66386;52.122;5.420;2023-08-08T04:03:50;8.10;;;2.63;;
71769;SDS011;66386;52.122;5.420;2023-08-08T04:06:17;8.37;;;3.13;;
71769;SDS011;66386;52.122;5.420;2023-08-08T04:08:44;6.38;;;2.88;;
71769;SDS011;66386;52.122;5.420;2023-08-08T04:11:10;8.05;;;2.30;;
71769;SDS011;66386;52.122;5.420;2023-08-08T04:13:37;6.65;;;2.60;;
71769;SDS011;66386;52.122;5.420;2023-08-08T04:16:03;6.13;;;2.58;;
71769;SDS011;66386;52.122;5.420;2023-08-08T04:18:30;5.07;;;2.43;;
71769;SDS011;66386;52.122;5.420;2023-08-08T04:20:56;6.47;;;2.35;;
71769;SDS011;66386;52.122;5.420;2023-08-08T04:23:23;6.57;;;2.25;;
71769;SDS011;66386;52.122;5.420;2023-08-08T04:25:52;4.28;;;2.13;;
71769;SDS011;66386;52.122;5.420;2023-08-08T04:28:19;5.45;;;2.55;;
71769;SDS011;66386;52.122;5.420;2023-08-08T04:30:46;5.00;;;2.27;;
71769;SDS011;66386;52.122;5.420;2023-08-08T04:33:12;5.38;;;2.22;;
71769;SDS011;66386;52.122;5.420;2023-08-08T04:35:39;5.32;;;2.22;;
71769;SDS011;66386;52.122;5.420;2023-08-08T04:38:05;6.25;;;2.05;;
71769;SDS011;66386;52.122;5.420;2023-08-08T04:40:32;7.03;;;2.20;;
71769;SDS011;66386;52.122;5.420;2023-08-08T04:43:01;5.67;;;1.93;;
71769;SDS011;66386;52.122;5.420;2023-08-08T04:45:27;5.15;;;1.90;;
71769;SDS011;66386;52.122;5.420;2023-08-08T04:47:55;5.97;;;2.03;;
71769;SDS011;66386;52.122;5.420;2023-08-08T04:50:22;8.45;;;2.40;;
71769;SDS011;66386;52.122;5.420;2023-08-08T04:52:48;6.38;;;2.22;;
71769;SDS011;66386;52.122;5.420;2023-08-08T04:55:15;9.13;;;2.43;;
71769;SDS011;66386;52.122;5.420;2023-08-08T04:57:41;11.48;;;2.03;;
71769;SDS011;66386;52.122;5.420;2023-08-08T05:00:08;7.20;;;2.00;;
71769;SDS011;66386;52.122;5.420;2023-08-08T05:02:35;3.50;;;1.85;;
71769;SDS011;66386;52.122;5.420;2023-08-08T05:05:02;5.22;;;1.98;;
71769;SDS011;66386;52.122;5.420;2023-08-08T05:07:30;2.40;;;1.43;;
71769;SDS011;66386;52.122;5.420;2023-08-08T05:09:56;6.90;;;1.85;;
71769;SDS011;66386;52.122;5.420;2023-08-08T05:12:23;4.03;;;2.15;;
71769;SDS011;66386;52.122;5.420;2023-08-08T05:14:51;5.18;;;1.90;;
71769;SDS011;66386;52.122;5.420;2023-08-08T05:17:18;7.18;;;1.80;;
71769;SDS011;66386;52.122;5.420;2023-08-08T05:19:44;7.27;;;1.80;;
71769;SDS011;66386;52.122;5.420;2023-08-08T05:22:11;7.90;;;2.08;;
71769;SDS011;66386;52.122;5.420;2023-08-08T05:24:37;3.08;;;1.85;;
71769;SDS011;66386;52.122;5.420;2023-08-08T05:27:04;5.88;;;2.03;;
71769;SDS011;66386;52.122;5.420;2023-08-08T05:29:31;4.55;;;1.88;;
71769;SDS011;66386;52.122;5.420;2023-08-08T05:31:58;5.27;;;2.00;;
71769;SDS011;66386;52.122;5.420;2023-08-08T05:34:25;5.28;;;2.33;;
71769;SDS011;66386;52.122;5.420;2023-08-08T05:36:51;4.93;;;2.08;;
71769;SDS011;66386;52.122;5.420;2023-08-08T05:39:38;3.65;;;1.75;;
71769;SDS011;66386;52.122;5.420;2023-08-08T05:42:04;4.35;;;1.73;;
71769;SDS011;66386;52.122;5.420;2023-08-08T05:44:32;6.13;;;1.60;;
71769;SDS011;66386;52.122;5.420;2023-08-08T05:46:58;2.90;;;1.50;;
71769;SDS011;66386;52.122;5.420;2023-08-08T05:49:25;4.28;;;1.40;;
71769;SDS011;66386;52.122;5.420;2023-08-08T05:51:51;2.55;;;1.48;;
71769;SDS011;66386;52.122;5.420;2023-08-08T05:54:18;4.90;;;1.70;;
71769;SDS011;66386;52.122;5.420;2023-08-08T05:56:45;5.03;;;1.53;;
71769;SDS011;66386;52.122;5.420;2023-08-08T05:59:12;3.75;;;1.35;;
71769;SDS011;66386;52.122;5.420;2023-08-08T06:01:38;5.97;;;1.63;;
71769;SDS011;66386;52.122;5.420;2023-08-08T06:04:05;5.43;;;1.40;;
71769;SDS011;66386;52.122;5.420;2023-08-08T06:06:32;4.22;;;1.08;;
71769;SDS011;66386;52.122;5.420;2023-08-08T06:08:58;2.67;;;0.97;;
71769;SDS011;66386;52.122;5.420;2023-08-08T06:11:25;4.93;;;1.17;;
71769;SDS011;66386;52.122;5.420;2023-08-08T06:13:51;4.45;;;1.52;;
71769;SDS011;66386;52.122;5.420;2023-08-08T06:16:18;6.35;;;1.02;;
71769;SDS011;66386;52.122;5.420;2023-08-08T06:18:45;3.03;;;0.93;;
71769;SDS011;66386;52.122;5.420;2023-08-08T06:21:11;4.97;;;1.10;;
71769;SDS011;66386;52.122;5.420;2023-08-08T06:23:38;4.38;;;0.55;;
71769;SDS011;66386;52.122;5.420;2023-08-08T06:26:05;3.45;;;0.70;;
71769;SDS011;66386;52.122;5.420;2023-08-08T06:28:31;1.60;;;0.82;;
71769;SDS011;66386;52.122;5.420;2023-08-08T06:30:58;4.75;;;0.70;;
71769;SDS011;66386;52.122;5.420;2023-08-08T06:33:25;5.63;;;0.60;;
71769;SDS011;66386;52.122;5.420;2023-08-08T06:35:51;1.83;;;0.52;;
71769;SDS011;66386;52.122;5.420;2023-08-08T06:38:18;3.10;;;0.63;;
71769;SDS011;66386;52.122;5.420;2023-08-08T06:40:44;1.75;;;0.43;;
71769;SDS011;66386;52.122;5.420;2023-08-08T06:43:11;3.80;;;0.50;;
71769;SDS011;66386;52.122;5.420;2023-08-08T06:45:38;3.67;;;0.63;;
71769;SDS011;66386;52.122;5.420;2023-08-08T06:48:05;3.03;;;0.60;;
71769;SDS011;66386;52.122;5.420;2023-08-08T06:50:32;3.20;;;0.52;;
71769;SDS011;66386;52.122;5.420;2023-08-08T06:52:58;2.55;;;0.73;;
71769;SDS011;66386;52.122;5.420;2023-08-08T06:55:25;1.75;;;0.50;;
71769;SDS011;66386;52.122;5.420;2023-08-08T06:57:52;3.30;;;0.50;;
71769;SDS011;66386;52.122;5.420;2023-08-08T07:00:18;3.00;;;0.40;;
71769;SDS011;66386;52.122;5.420;2023-08-08T07:02:45;3.05;;;0.50;;
71769;SDS011;66386;52.122;5.420;2023-08-08T07:05:12;4.00;;;0.75;;
71769;SDS011;66386;52.122;5.420;2023-08-08T07:07:38;2.88;;;0.40;;
71769;SDS011;66386;52.122;5.420;2023-08-08T07:10:05;1.43;;;0.40;;
71769;SDS011;66386;52.122;5.420;2023-08-08T07:12:33;1.95;;;0.40;;
71769;SDS011;66386;52.122;5.420;2023-08-08T07:15:00;1.42;;;0.43;;
71769;SDS011;66386;52.122;5.420;2023-08-08T07:17:26;2.30;;;0.50;;
71769;SDS011;66386;52.122;5.420;2023-08-08T07:19:53;1.77;;;0.60;;
71769;SDS011;66386;52.122;5.420;2023-08-08T07:22:19;2.33;;;0.57;;
71769;SDS011;66386;52.122;5.420;2023-08-08T07:24:46;4.68;;;0.80;;
71769;SDS011;66386;52.122;5.420;2023-08-08T07:27:13;4.18;;;0.50;;
71769;SDS011;66386;52.122;5.420;2023-08-08T07:29:40;4.70;;;0.50;;
71769;SDS011;66386;52.122;5.420;2023-08-08T07:32:06;1.70;;;0.40;;
71769;SDS011;66386;52.122;5.420;2023-08-08T07:34:33;2.53;;;0.40;;
71769;SDS011;66386;52.122;5.420;2023-08-08T07:37:00;5.07;;;0.38;;
71769;SDS011;66386;52.122;5.420;2023-08-08T07:39:26;2.85;;;0.50;;
71769;SDS011;66386;52.122;5.420;2023-08-08T07:41:54;2.17;;;0.40;;
71769;SDS011;66386;52.122;5.420;2023-08-08T07:44:20;2.15;;;0.40;;
71769;SDS011;66386;52.122;5.420;2023-08-08T07:46:47;2.90;;;0.40;;
71769;SDS011;66386;52.122;5.420;2023-08-08T07:49:13;1.85;;;0.52;;
71769;SDS011;66386;52.122;5.420;2023-08-08T07:51:40;1.40;;;0.30;;
71769;SDS011;66386;52.122;5.420;2023-08-08T07:54:06;1.50;;;0.30;;
71769;SDS011;66386;52.122;5.420;2023-08-08T07:56:35;1.98;;;0.30;;
71769;SDS011;66386;52.122;5.420;2023-08-08T07:59:02;2.83;;;0.40;;
71769;SDS011;66386;52.122;5.420;2023-08-08T08:01:29;2.55;;;0.30;;
71769;SDS011;66386;52.122;5.420;2023-08-08T08:03:56;1.95;;;0.25;;
71769;SDS011;66386;52.122;5.420;2023-08-08T08:06:22;0.77;;;0.20;;
71769;SDS011;66386;52.122;5.420;2023-08-08T08:08:49;0.93;;;0.30;;
71769;SDS011;66386;52.122;5.420;2023-08-08T08:11:15;3.63;;;0.47;;
71769;SDS011;66386;52.122;5.420;2023-08-08T08:13:43;2.63;;;0.50;;
71769;SDS011;66386;52.122;5.420;2023-08-08T08:16:09;2.67;;;0.30;;
71769;SDS011;66386;52.122;5.420;2023-08-08T08:18:36;2.08;;;0.22;;
71769;SDS011;66386;52.122;5.420;2023-08-08T08:21:02;1.55;;;0.40;;
71769;SDS011;66386;52.122;5.420;2023-08-08T08:23:29;1.30;;;0.30;;
71769;SDS011;66386;52.122;5.420;2023-08-08T08:25:58;1.45;;;0.30;;
71769;SDS011;66386;52.122;5.420;2023-08-08T08:28:25;2.45;;;0.35;;
71769;SDS011;66386;52.122;5.420;2023-08-08T08:30:52;2.88;;;0.30;;
71769;SDS011;66386;52.122;5.420;2023-08-08T08:33:19;2.45;;;0.30;;
71769;SDS011;66386;52.122;5.420;2023-08-08T08:35:46;0.50;;;0.20;;
71769;SDS011;66386;52.122;5.420;2023-08-08T08:38:13;2.72;;;0.30;;
71769;SDS011;66386;52.122;5.420;2023-08-08T08:40:40;1.35;;;0.32;;
71769;SDS011;66386;52.122;5.420;2023-08-08T08:43:08;1.65;;;0.30;;
71769;SDS011;66386;52.122;5.420;2023-08-08T08:45:39;1.27;;;0.38;;
71769;SDS011;66386;52.122;5.420;2023-08-08T08:48:09;1.77;;;0.30;;
71769;SDS011;66386;52.122;5.420;2023-08-08T08:50:37;1.48;;;0.28;;
71769;SDS011;66386;52.122;5.420;2023-08-08T08:53:19;0.88;;;0.20;;
71769;SDS011;66386;52.122;5.420;2023-08-08T08:55:49;0.80;;;0.20;;
71769;SDS011;66386;52.122;5.420;2023-08-08T08:58:17;2.80;;;0.30;;
71769;SDS011;66386;52.122;5.420;2023-08-08T09:00:44;0.87;;;0.20;;
71769;SDS011;66386;52.122;5.420;2023-08-08T09:03:14;1.08;;;0.20;;
71769;SDS011;66386;52.122;5.420;2023-08-08T09:05:42;0.35;;;0.20;;
71769;SDS011;66386;52.122;5.420;2023-08-08T09:08:11;3.25;;;0.30;;
71769;SDS011;66386;52.122;5.420;2023-08-08T09:10:39;0.90;;;0.20;;
71769;SDS011;66386;52.122;5.420;2023-08-08T09:13:07;1.33;;;0.20;;
71769;SDS011;66386;52.122;5.420;2023-08-08T09:15:36;2.35;;;0.20;;
71769;SDS011;66386;52.122;5.420;2023-08-08T09:18:03;1.88;;;0.45;;
71769;SDS011;66386;52.122;5.420;2023-08-08T09:20:30;1.75;;;0.20;;
71769;SDS011;66386;52.122;5.420;2023-08-08T09:22:57;2.80;;;0.30;;
71769;SDS011;66386;52.122;5.420;2023-08-08T09:25:24;1.17;;;0.20;;
71769;SDS011;66386;52.122;5.420;2023-08-08T09:27:52;0.60;;;0.20;;
71769;SDS011;66386;52.122;5.420;2023-08-08T09:30:19;1.23;;;0.20;;
71769;SDS011;66386;52.122;5.420;2023-08-08T09:32:46;1.00;;;0.20;;
71769;SDS011;66386;52.122;5.420;2023-08-08T09:35:14;1.60;;;0.20;;
71769;SDS011;66386;52.122;5.420;2023-08-08T09:37:41;2.67;;;0.20;;
71769;SDS011;66386;52.122;5.420;2023-08-08T09:40:08;1.00;;;0.20;;
71769;SDS011;66386;52.122;5.420;2023-08-08T09:42:39;0.63;;;0.20;;
71769;SDS011;66386;52.122;5.420;2023-08-08T09:45:08;1.42;;;0.30;;
71769;SDS011;66386;52.122;5.420;2023-08-08T09:47:36;1.00;;;0.30;;
71769;SDS011;66386;52.122;5.420;2023-08-08T09:50:04;1.33;;;0.30;;
71769;SDS011;66386;52.122;5.420;2023-08-08T09:52:32;0.52;;;0.20;;
71769;SDS011;66386;52.122;5.420;2023-08-08T09:55:00;1.65;;;0.70;;
71769;SDS011;66386;52.122;5.420;2023-08-08T09:57:28;1.85;;;0.30;;
71769;SDS011;66386;52.122;5.420;2023-08-08T09:59:56;0.75;;;0.20;;
71769;SDS011;66386;52.122;5.420;2023-08-08T10:02:24;1.40;;;0.20;;
71769;SDS011;66386;52.122;5.420;2023-08-08T10:04:51;3.08;;;0.20;;
71769;SDS011;66386;52.122;5.420;2023-08-08T10:07:19;1.00;;;0.40;;
71769;SDS011;66386;52.122;5.420;2023-08-08T10:09:46;1.27;;;0.20;;
71769;SDS011;66386;52.122;5.420;2023-08-08T10:12:13;1.15;;;0.20;;
71769;SDS011;66386;52.122;5.420;2023-08-08T10:14:42;1.20;;;0.40;;
71769;SDS011;66386;52.122;5.420;2023-08-08T10:17:12;0.60;;;0.22;;
71769;SDS011;66386;52.122;5.420;2023-08-08T10:19:59;1.10;;;0.40;;
71769;SDS011;66386;52.122;5.420;2023-08-08T10:22:35;1.10;;;0.30;;
71769;SDS011;66386;52.122;5.420;2023-08-08T10:25:03;1.70;;;0.40;;
71769;SDS011;66386;52.122;5.420;2023-08-08T10:27:33;2.77;;;0.30;;
71769;SDS011;66386;52.122;5.420;2023-08-08T10:30:08;1.02;;;0.30;;
71769;SDS011;66386;52.122;5.420;2023-08-08T10:32:40;0.50;;;0.20;;
71769;SDS011;66386;52.122;5.420;2023-08-08T10:35:09;1.50;;;0.30;;
71769;SDS011;66386;52.122;5.420;2023-08-08T10:37:37;2.05;;;0.63;;
71769;SDS011;66386;52.122;5.420;2023-08-08T10:40:05;0.90;;;0.30;;
71769;SDS011;66386;52.122;5.420;2023-08-08T10:42:43;3.05;;;0.30;;
71769;SDS011;66386;52.122;5.420;2023-08-08T10:45:12;1.85;;;0.30;;
71769;SDS011;66386;52.122;5.420;2023-08-08T10:47:41;2.08;;;1.10;;
71769;SDS011;66386;52.122;5.420;2023-08-08T10:50:12;1.48;;;0.20;;
71769;SDS011;66386;52.122;5.420;2023-08-08T11:00:23;0.55;;;0.20;;
71769;SDS011;66386;52.122;5.420;2023-08-08T11:02:51;1.63;;;0.20;;
71769;SDS011;66386;52.122;5.420;2023-08-08T11:05:19;1.07;;;0.27;;
71769;SDS011;66386;52.122;5.420;2023-08-08T11:07:46;2.28;;;0.40;;
71769;SDS011;66386;52.122;5.420;2023-08-08T11:10:13;1.20;;;0.30;;
71769;SDS011;66386;52.122;5.420;2023-08-08T11:12:40;0.40;;;0.30;;
71769;SDS011;66386;52.122;5.420;2023-08-08T11:15:07;1.35;;;0.30;;
71769;SDS011;66386;52.122;5.420;2023-08-08T11:17:34;1.67;;;0.20;;
71769;SDS011;66386;52.122;5.420;2023-08-08T11:20:00;1.35;;;0.30;;
71769;SDS011;66386;52.122;5.420;2023-08-08T11:22:28;1.85;;;0.20;;
71769;SDS011;66386;52.122;5.420;2023-08-08T11:24:54;0.40;;;0.20;;
71769;SDS011;66386;52.122;5.420;2023-08-08T11:27:23;3.40;;;1.05;;
71769;SDS011;66386;52.122;5.420;2023-08-08T11:29:53;0.30;;;0.20;;
71769;SDS011;66386;52.122;5.420;2023-08-08T11:32:25;0.63;;;0.20;;
71769;SDS011;66386;52.122;5.420;2023-08-08T11:34:54;0.60;;;0.20;;
71769;SDS011;66386;52.122;5.420;2023-08-08T11:37:21;0.35;;;0.20;;
71769;SDS011;66386;52.122;5.420;2023-08-08T11:39:48;2.38;;;0.20;;
71769;SDS011;66386;52.122;5.420;2023-08-08T11:42:15;0.60;;;0.23;;
71769;SDS011;66386;52.122;5.420;2023-08-08T11:44:42;0.68;;;0.20;;
71769;SDS011;66386;52.122;5.420;2023-08-08T11:47:08;2.38;;;0.30;;
71769;SDS011;66386;52.122;5.420;2023-08-08T11:49:39;1.80;;;0.93;;
71769;SDS011;66386;52.122;5.420;2023-08-08T11:52:07;1.48;;;0.20;;
71769;SDS011;66386;52.122;5.420;2023-08-08T11:54:36;0.87;;;0.20;;
71769;SDS011;66386;52.122;5.420;2023-08-08T11:57:04;0.93;;;0.30;;
71769;SDS011;66386;52.122;5.420;2023-08-08T11:59:30;1.40;;;0.20;;
71769;SDS011;66386;52.122;5.420;2023-08-08T12:01:57;0.47;;;0.20;;
71769;SDS011;66386;52.122;5.420;2023-08-08T12:04:25;0.88;;;0.20;;
71769;SDS011;66386;52.122;5.420;2023-08-08T12:07:00;0.70;;;0.40;;
71769;SDS011;66386;52.122;5.420;2023-08-08T12:09:32;1.45;;;0.30;;
71769;SDS011;66386;52.122;5.420;2023-08-08T12:12:00;0.93;;;0.30;;
71769;SDS011;66386;52.122;5.420;2023-08-08T12:14:27;0.70;;;0.30;;
71769;SDS011;66386;52.122;5.420;2023-08-08T12:16:54;0.60;;;0.30;;
71769;SDS011;66386;52.122;5.420;2023-08-08T12:19:24;1.43;;;0.30;;
71769;SDS011;66386;52.122;5.420;2023-08-08T12:21:51;3.50;;;0.40;;
71769;SDS011;66386;52.122;5.420;2023-08-08T12:24:18;0.60;;;0.20;;
71769;SDS011;66386;52.122;5.420;2023-08-08T12:26:45;2.67;;;0.40;;
71769;SDS011;66386;52.122;5.420;2023-08-08T12:29:12;3.80;;;0.32;;
71769;SDS011;66386;52.122;5.420;2023-08-08T12:31:39;0.93;;;0.37;;
71769;SDS011;66386;52.122;5.420;2023-08-08T12:34:05;1.02;;;0.22;;
71769;SDS011;66386;52.122;5.420;2023-08-08T12:36:32;0.40;;;0.20;;
71769;SDS011;66386;52.122;5.420;2023-08-08T12:38:58;0.57;;;0.20;;
71769;SDS011;66386;52.122;5.420;2023-08-08T12:41:25;0.80;;;0.30;;
71769;SDS011;66386;52.122;5.420;2023-08-08T12:43:52;1.03;;;0.30;;
71769;SDS011;66386;52.122;5.420;2023-08-08T12:46:18;0.98;;;0.50;;
71769;SDS011;66386;52.122;5.420;2023-08-08T12:48:45;2.22;;;0.20;;
71769;SDS011;66386;52.122;5.420;2023-08-08T12:51:12;0.70;;;0.20;;
71769;SDS011;66386;52.122;5.420;2023-08-08T12:53:38;2.72;;;0.30;;
71769;SDS011;66386;52.122;5.420;2023-08-08T12:56:05;2.20;;;0.30;;
71769;SDS011;66386;52.122;5.420;2023-08-08T12:58:31;1.05;;;0.30;;
71769;SDS011;66386;52.122;5.420;2023-08-08T13:00:58;1.00;;;0.40;;
71769;SDS011;66386;52.122;5.420;2023-08-08T13:03:25;3.53;;;0.60;;
71769;SDS011;66386;52.122;5.420;2023-08-08T13:05:51;0.70;;;0.20;;
71769;SDS011;66386;52.122;5.420;2023-08-08T13:08:18;3.27;;;0.30;;
71769;SDS011;66386;52.122;5.420;2023-08-08T13:10:45;1.23;;;0.20;;
71769;SDS011;66386;52.122;5.420;2023-08-08T13:13:12;0.65;;;0.22;;
71769;SDS011;66386;52.122;5.420;2023-08-08T13:15:39;1.33;;;0.40;;
71769;SDS011;66386;52.122;5.420;2023-08-08T13:18:06;1.13;;;0.25;;
71769;SDS011;66386;52.122;5.420;2023-08-08T13:20:32;2.90;;;0.30;;
71769;SDS011;66386;52.122;5.420;2023-08-08T13:22:59;0.82;;;0.20;;
71769;SDS011;66386;52.122;5.420;2023-08-08T13:25:26;0.77;;;0.20;;
71769;SDS011;66386;52.122;5.420;2023-08-08T13:27:52;3.85;;;0.40;;
71769;SDS011;66386;52.122;5.420;2023-08-08T13:30:18;1.27;;;0.20;;
71769;SDS011;66386;52.122;5.420;2023-08-08T13:32:47;2.30;;;0.40;;
71769;SDS011;66386;52.122;5.420;2023-08-08T13:35:14;2.97;;;0.40;;
71769;SDS011;66386;52.122;5.420;2023-08-08T13:37:41;2.42;;;0.40;;
71769;SDS011;66386;52.122;5.420;2023-08-08T13:40:07;1.17;;;0.57;;
71769;SDS011;66386;52.122;5.420;2023-08-08T13:42:35;1.58;;;0.38;;
71769;SDS011;66386;52.122;5.420;2023-08-08T13:45:01;1.27;;;0.27;;
71769;SDS011;66386;52.122;5.420;2023-08-08T13:47:28;1.55;;;0.30;;
71769;SDS011;66386;52.122;5.420;2023-08-08T13:49:54;0.60;;;0.30;;
71769;SDS011;66386;52.122;5.420;2023-08-08T13:52:21;3.92;;;0.30;;
71769;SDS011;66386;52.122;5.420;2023-08-08T13:54:47;0.95;;;0.30;;
71769;SDS011;66386;52.122;5.420;2023-08-08T13:57:14;1.20;;;0.30;;
71769;SDS011;66386;52.122;5.420;2023-08-08T13:59:42;1.65;;;0.57;;
71769;SDS011;66386;52.122;5.420;2023-08-08T14:02:09;1.60;;;0.30;;
71769;SDS011;66386;52.122;5.420;2023-08-08T14:04:35;0.52;;;0.20;;
71769;SDS011;66386;52.122;5.420;2023-08-08T14:07:02;1.80;;;0.30;;
71769;SDS011;66386;52.122;5.420;2023-08-08T14:09:28;1.93;;;0.30;;
71769;SDS011;66386;52.122;5.420;2023-08-08T14:11:55;2.05;;;0.30;;
71769;SDS011;66386;52.122;5.420;2023-08-08T14:14:21;2.55;;;0.32;;
71769;SDS011;66386;52.122;5.420;2023-08-08T14:16:48;1.95;;;0.30;;
71769;SDS011;66386;52.122;5.420;2023-08-08T14:19:14;2.05;;;0.20;;
71769;SDS011;66386;52.122;5.420;2023-08-08T14:21:43;1.63;;;0.30;;
71769;SDS011;66386;52.122;5.420;2023-08-08T14:24:09;1.33;;;0.65;;
71769;SDS011;66386;52.122;5.420;2023-08-08T14:26:36;1.33;;;0.40;;
71769;SDS011;66386;52.122;5.420;2023-08-08T14:29:03;1.45;;;0.30;;
71769;SDS011;66386;52.122;5.420;2023-08-08T14:31:30;1.83;;;0.30;;
71769;SDS011;66386;52.122;5.420;2023-08-08T14:34:08;1.37;;;0.30;;
71769;SDS011;66386;52.122;5.420;2023-08-08T14:36:35;3.75;;;0.50;;
71769;SDS011;66386;52.122;5.420;2023-08-08T14:39:01;2.80;;;0.43;;
71769;SDS011;66386;52.122;5.420;2023-08-08T14:41:28;3.67;;;0.30;;
71769;SDS011;66386;52.122;5.420;2023-08-08T14:43:54;0.45;;;0.20;;
71769;SDS011;66386;52.122;5.420;2023-08-08T14:46:21;0.63;;;0.30;;
71769;SDS011;66386;52.122;5.420;2023-08-08T14:48:47;4.97;;;0.30;;
71769;SDS011;66386;52.122;5.420;2023-08-08T14:51:14;1.83;;;0.32;;
71769;SDS011;66386;52.122;5.420;2023-08-08T14:53:43;2.08;;;0.20;;
71769;SDS011;66386;52.122;5.420;2023-08-08T14:56:10;2.40;;;0.50;;
71769;SDS011;66386;52.122;5.420;2023-08-08T14:58:37;0.83;;;0.30;;
71769;SDS011;66386;52.122;5.420;2023-08-08T15:01:03;1.27;;;0.30;;